createdAt,value
2023-01-29T00:00:57.559Z,78.35
2023-01-29T00:01:57.608Z,75.74
2023-01-29T00:02:57.621Z,76.79
2023-01-29T00:03:57.534Z,77.45
2023-01-29T00:04:59.155Z,76.40
2023-01-29T00:05:57.531Z,76.30
2023-01-29T00:06:57.517Z,74.80
2023-01-29T00:07:57.518Z,75.85
2023-01-29T00:08:57.484Z,75.32
2023-01-29T00:09:57.464Z,75.01
2023-01-29T00:10:57.443Z,74.49
2023-01-29T00:11:57.441Z,75.43
2023-01-29T00:12:57.438Z,75.43
2023-01-29T00:13:57.446Z,74.60
2023-01-29T00:14:57.421Z,74.80
2023-01-29T00:15:57.394Z,75.53
2023-01-29T00:16:57.468Z,74.80
2023-01-29T00:17:57.389Z,73.24
2023-01-29T00:18:57.365Z,72.72
2023-01-29T00:19:57.393Z,76.06
2023-01-29T00:20:57.332Z,74.91
2023-01-29T00:21:57.366Z,76.16
2023-01-29T00:22:57.317Z,75.22
2023-01-29T00:23:57.359Z,77.62
2023-01-29T00:24:57.294Z,77.51
2023-01-29T00:25:57.328Z,77.51
2023-01-29T00:26:57.279Z,77.41
2023-01-29T00:27:57.285Z,79.08
2023-01-29T00:28:57.263Z,79.91
2023-01-29T00:29:57.254Z,80.02
2023-01-29T00:30:57.310Z,78.14
2023-01-29T00:31:57.341Z,76.57
2023-01-29T00:32:57.220Z,76.82
2023-01-29T00:33:57.244Z,75.78
2023-01-29T00:34:57.223Z,76.61
2023-01-29T00:35:57.267Z,77.14
2023-01-29T00:36:57.168Z,77.14
2023-01-29T00:37:57.185Z,76.51
2023-01-29T00:38:57.141Z,76.92
2023-01-29T00:39:57.171Z,77.97
2023-01-29T00:40:57.155Z,75.78
2023-01-29T00:41:57.185Z,75.05
2023-01-29T00:42:57.108Z,76.82
2023-01-29T00:43:57.144Z,76.40
2023-01-29T00:44:57.088Z,76.30
2023-01-29T00:45:57.104Z,75.78
2023-01-29T00:46:57.149Z,75.15
2023-01-29T00:47:57.067Z,77.24
2023-01-29T00:48:57.045Z,76.20
2023-01-29T00:49:57.082Z,77.55
2023-01-29T00:50:57.025Z,76.61
2023-01-29T00:51:57.034Z,74.42
2023-01-29T00:52:56.994Z,77.14
2023-01-29T00:53:57.012Z,76.44
2023-01-29T00:54:57.023Z,76.23
2023-01-29T00:55:57.025Z,76.33
2023-01-29T00:56:56.975Z,76.44
2023-01-29T00:57:56.981Z,76.86
2023-01-29T00:58:56.980Z,76.12
2023-01-29T00:59:56.956Z,74.56
2023-01-29T01:00:56.929Z,76.44
2023-01-29T01:01:56.966Z,76.44
2023-01-29T01:02:56.903Z,75.60
2023-01-29T01:03:56.915Z,76.23
2023-01-29T01:04:56.900Z,76.44
2023-01-29T01:05:56.891Z,77.27
2023-01-29T01:06:56.898Z,76.20
2023-01-29T01:07:56.903Z,75.57
2023-01-29T01:08:56.841Z,77.24
2023-01-29T01:09:56.834Z,78.18
2023-01-29T01:10:56.813Z,74.63
2023-01-29T01:11:56.828Z,74.11
2023-01-29T01:12:56.825Z,78.28
2023-01-29T01:13:56.836Z,78.07
2023-01-29T01:14:56.776Z,75.78
2023-01-29T01:15:56.810Z,76.61
2023-01-29T01:16:56.789Z,77.59
2023-01-29T01:17:56.754Z,76.75
2023-01-29T01:18:56.738Z,76.96
2023-01-29T01:19:56.747Z,75.39
2023-01-29T01:20:56.758Z,75.29
2023-01-29T01:21:56.713Z,77.69
2023-01-29T01:22:56.715Z,77.48
2023-01-29T01:23:56.719Z,75.92
2023-01-29T01:24:56.698Z,76.65
2023-01-29T01:25:56.683Z,75.81
2023-01-29T01:26:56.699Z,75.29
2023-01-29T01:27:56.663Z,75.50
2023-01-29T01:28:56.647Z,76.75
2023-01-29T01:29:56.614Z,76.44
2023-01-29T01:30:56.672Z,76.54
2023-01-29T01:31:56.627Z,76.33
2023-01-29T01:32:56.625Z,75.08
2023-01-29T01:33:56.572Z,75.08
2023-01-29T01:34:56.579Z,76.02
2023-01-29T01:35:56.561Z,76.12
2023-01-29T01:36:56.584Z,75.81
2023-01-29T01:37:56.567Z,74.87
2023-01-29T01:38:56.538Z,76.23
2023-01-29T01:39:56.553Z,74.98
2023-01-29T01:40:56.520Z,74.45
2023-01-29T01:41:56.507Z,74.66
2023-01-29T01:42:56.508Z,74.14
2023-01-29T01:43:56.490Z,74.04
2023-01-29T01:44:56.502Z,74.66
2023-01-29T01:45:56.502Z,75.60
2023-01-29T01:46:56.461Z,75.18
2023-01-29T01:47:56.451Z,74.56
2023-01-29T01:48:56.428Z,74.45
2023-01-29T01:49:56.434Z,73.72
2023-01-29T01:50:56.427Z,72.99
2023-01-29T01:51:56.379Z,73.93
2023-01-29T01:52:56.414Z,74.35
2023-01-29T01:53:56.389Z,76.12
2023-01-29T01:54:56.400Z,75.81
2023-01-29T01:55:56.367Z,72.89
2023-01-29T01:56:56.347Z,74.35
2023-01-29T01:57:56.316Z,75.39
2023-01-29T01:58:56.324Z,76.37
2023-01-29T01:59:56.303Z,76.57
2023-01-29T02:00:56.351Z,74.69
2023-01-29T02:01:56.345Z,73.34
2023-01-29T02:02:56.284Z,74.91
2023-01-29T02:03:56.283Z,76.37
2023-01-29T02:04:56.262Z,75.32
2023-01-29T02:05:56.234Z,75.32
2023-01-29T02:06:56.280Z,76.68
2023-01-29T02:07:56.216Z,75.53
2023-01-29T02:08:56.222Z,76.79
2023-01-29T02:09:56.213Z,75.43
2023-01-29T02:10:56.230Z,76.26
2023-01-29T02:11:56.182Z,76.79
2023-01-29T02:12:56.187Z,75.63
2023-01-29T02:13:56.141Z,75.53
2023-01-29T02:14:56.156Z,76.47
2023-01-29T02:15:56.127Z,75.63
2023-01-29T02:16:56.164Z,73.47
2023-01-29T02:17:56.129Z,73.27
2023-01-29T02:18:56.134Z,75.26
2023-01-29T02:19:56.102Z,75.67
2023-01-29T02:20:56.089Z,76.51
2023-01-29T02:21:56.059Z,76.51
2023-01-29T02:22:56.076Z,77.03
2023-01-29T02:23:56.106Z,75.26
2023-01-29T02:24:56.080Z,76.72
2023-01-29T02:25:56.017Z,75.78
2023-01-29T02:26:56.017Z,76.72
2023-01-29T02:27:56.001Z,77.24
2023-01-29T02:28:56.054Z,77.03
2023-01-29T02:29:55.977Z,77.24
2023-01-29T07:01:00.912Z,80.83
2023-01-29T07:02:01.873Z,81.26
2023-01-29T07:03:01.829Z,81.88
2023-01-29T07:04:01.853Z,81.78
2023-01-29T07:05:01.812Z,80.52
2023-01-29T07:06:01.813Z,80.21
2023-01-29T07:07:01.790Z,80.73
2023-01-29T07:08:01.768Z,81.57
2023-01-29T07:09:01.789Z,80.73
2023-01-29T07:10:01.801Z,82.09
2023-01-29T07:11:01.823Z,81.99
2023-01-29T07:12:01.757Z,81.15
2023-01-29T07:13:01.819Z,82.26
2023-01-29T07:14:01.715Z,81.32
2023-01-29T07:15:01.711Z,82.47
2023-01-29T07:16:01.781Z,82.68
2023-01-29T07:17:01.721Z,83.10
2023-01-29T07:18:01.686Z,83.10
2023-01-29T07:19:01.666Z,81.32
2023-01-29T07:20:01.688Z,80.38
2023-01-29T07:21:01.647Z,81.01
2023-01-29T07:22:01.657Z,82.06
2023-01-29T07:23:01.644Z,82.26
2023-01-29T07:24:01.686Z,82.58
2023-01-29T07:25:01.661Z,81.53
2023-01-29T07:26:01.587Z,80.17
2023-01-29T07:27:01.593Z,81.12
2023-01-29T07:28:01.564Z,81.53
2023-01-29T07:29:01.583Z,82.16
2023-01-29T07:30:01.565Z,81.01
2023-01-29T07:31:01.595Z,80.59
2023-01-29T07:32:01.706Z,81.22
2023-01-29T07:33:01.606Z,82.06
2023-01-29T07:34:01.500Z,81.74
2023-01-29T07:35:01.513Z,82.79
2023-01-29T07:36:01.496Z,81.63
2023-01-29T07:37:01.578Z,83.21
2023-01-29T07:38:01.461Z,82.37
2023-01-29T07:39:01.470Z,82.68
2023-01-29T07:40:01.438Z,82.16
2023-01-29T07:41:03.166Z,81.95
2023-01-29T07:42:01.421Z,81.74
2023-01-29T07:43:01.478Z,82.68
2023-01-29T07:44:01.395Z,82.37
2023-01-29T07:45:01.424Z,81.12
2023-01-29T07:46:01.463Z,81.01
2023-01-29T07:47:01.387Z,80.69
2023-01-29T07:48:01.370Z,79.72
2023-01-29T07:49:01.356Z,80.76
2023-01-29T07:50:01.367Z,80.35
2023-01-29T07:51:01.382Z,80.66
2023-01-29T07:52:01.318Z,80.45
2023-01-29T07:53:01.323Z,80.55
2023-01-29T07:54:01.306Z,80.66
2023-01-29T07:55:01.333Z,80.66
2023-01-29T07:56:01.280Z,80.24
2023-01-29T07:57:01.292Z,81.92
2023-01-29T07:58:01.264Z,82.02
2023-01-29T07:59:01.273Z,80.80
2023-01-29T08:00:01.232Z,81.29
2023-01-29T08:01:01.297Z,81.95
2023-01-29T08:02:01.298Z,82.58
2023-01-29T08:03:01.221Z,80.59
2023-01-29T08:04:01.210Z,80.27
2023-01-29T08:05:01.203Z,81.32
2023-01-29T08:06:01.171Z,81.49
2023-01-29T08:07:01.200Z,80.45
2023-01-29T08:08:06.959Z,79.50
2023-01-29T08:09:01.194Z,80.03
2023-01-29T08:10:01.140Z,81.07
2023-01-29T08:11:01.140Z,80.35
2023-01-29T08:12:01.123Z,80.13
2023-01-29T08:13:01.127Z,80.97
2023-01-29T08:14:01.124Z,81.07
2023-01-29T08:15:01.103Z,81.49
2023-01-29T08:16:01.145Z,81.49
2023-01-29T08:17:01.065Z,80.24
2023-01-29T08:18:01.089Z,80.55
2023-01-29T08:19:01.089Z,80.66
2023-01-29T08:20:01.037Z,80.87
2023-01-29T08:21:01.060Z,81.07
2023-01-29T08:22:01.018Z,82.02
2023-01-29T08:23:01.020Z,81.18
2023-01-29T08:25:08.222Z,79.72
2023-01-29T08:26:01.033Z,78.32
2023-01-29T08:27:00.996Z,79.89
2023-01-29T08:28:00.971Z,81.56
2023-01-29T08:29:01.001Z,81.98
2023-01-29T08:30:00.934Z,81.35
2023-01-29T08:31:00.971Z,78.56
2023-01-29T08:32:00.969Z,78.88
2023-01-29T08:33:00.983Z,79.50
2023-01-29T08:34:00.890Z,79.61
2023-01-29T08:35:00.936Z,80.24
2023-01-29T08:36:00.862Z,79.19
2023-01-29T08:37:00.887Z,79.40
2023-01-29T08:38:00.863Z,79.50
2023-01-29T08:39:00.880Z,78.56
2023-01-29T08:40:00.836Z,79.72
2023-01-29T08:41:00.875Z,82.43
2023-01-29T08:42:00.817Z,81.07
2023-01-29T08:43:02.242Z,80.87
2023-01-29T08:44:00.812Z,80.13
2023-01-29T08:45:00.830Z,80.13
2023-01-29T08:46:00.905Z,79.61
2023-01-29T08:47:00.842Z,79.93
2023-01-29T08:48:00.747Z,79.72
2023-01-29T08:49:00.770Z,79.50
2023-01-29T08:50:00.766Z,79.40
2023-01-29T08:51:00.732Z,78.25
2023-01-29T08:52:02.965Z,77.48
2023-01-29T08:53:00.744Z,78.74
2023-01-29T08:54:00.703Z,78.11
2023-01-29T08:55:00.733Z,78.85
2023-01-29T08:56:00.659Z,77.80
2023-01-29T08:57:00.671Z,77.80
2023-01-29T08:58:00.665Z,77.31
2023-01-29T08:59:00.666Z,77.94
2023-01-29T09:00:00.630Z,77.94
2023-01-29T09:01:00.658Z,77.42
2023-01-29T09:02:00.602Z,78.25
2023-01-29T09:03:00.648Z,78.99
2023-01-29T09:04:00.632Z,78.36
2023-01-29T09:05:00.609Z,77.73
2023-01-29T09:06:00.568Z,77.00
2023-01-29T09:07:00.580Z,80.35
2023-01-29T09:08:00.546Z,78.74
2023-01-29T09:09:00.579Z,79.47
2023-01-29T09:10:00.595Z,79.05
2023-01-29T09:11:00.517Z,77.80
2023-01-29T09:12:00.491Z,78.11
2023-01-29T09:13:00.536Z,77.24
2023-01-29T09:14:00.479Z,77.34
2023-01-29T09:15:00.510Z,78.49
2023-01-29T09:16:00.455Z,78.49
2023-01-29T09:17:00.458Z,76.72
2023-01-29T09:18:00.455Z,78.08
2023-01-29T09:19:00.434Z,78.49
2023-01-29T09:20:01.099Z,77.34
2023-01-29T09:21:00.448Z,77.45
2023-01-29T09:22:00.403Z,77.14
2023-01-29T09:23:00.394Z,75.85
2023-01-29T09:24:00.366Z,75.63
2023-01-29T09:25:00.384Z,76.37
2023-01-29T09:26:00.355Z,76.68
2023-01-29T09:27:00.420Z,77.62
2023-01-29T09:28:00.351Z,78.56
2023-01-29T09:29:00.348Z,77.83
2023-01-29T09:30:00.309Z,77.76
2023-01-29T09:31:00.398Z,76.51
2023-01-29T09:32:00.378Z,75.88
2023-01-29T09:33:00.320Z,76.75
2023-01-29T09:34:00.289Z,77.38
2023-01-29T09:35:00.293Z,78.22
2023-01-29T09:36:00.243Z,77.59
2023-01-29T09:37:00.263Z,77.48
2023-01-29T09:38:00.251Z,77.38
2023-01-29T09:39:00.234Z,76.86
2023-01-29T09:40:00.219Z,77.59
2023-01-29T09:41:00.243Z,77.87
2023-01-29T09:42:00.184Z,79.44
2023-01-29T09:43:00.198Z,78.81
2023-01-29T09:44:00.178Z,77.66
2023-01-29T09:45:00.193Z,77.87
2023-01-29T09:46:00.236Z,78.18
2023-01-29T09:47:00.151Z,76.51
2023-01-29T09:48:00.156Z,77.34
2023-01-29T09:49:00.149Z,76.72
2023-01-29T09:50:00.136Z,78.08
2023-01-29T09:51:00.114Z,77.14
2023-01-29T09:52:00.113Z,76.93
2023-01-29T09:53:00.099Z,78.08
2023-01-29T09:54:00.099Z,77.87
2023-01-29T09:55:00.060Z,77.66
2023-01-29T09:56:00.089Z,78.49
2023-01-29T09:57:00.034Z,77.87
2023-01-29T09:58:00.058Z,78.91
2023-01-29T09:59:01.661Z,77.97
2023-01-29T10:00:00.012Z,77.55
2023-01-29T10:01:00.009Z,76.93
2023-01-29T10:02:00.087Z,78.08
2023-01-29T10:02:59.994Z,75.57
2023-01-29T10:03:59.981Z,77.24
2023-01-29T10:04:59.940Z,77.03
2023-01-29T10:05:59.973Z,76.09
2023-01-29T10:06:59.925Z,78.56
2023-01-29T10:07:59.924Z,77.73
2023-01-29T10:08:59.926Z,76.79
2023-01-29T10:09:59.923Z,77.24
2023-01-29T10:10:59.894Z,78.04
2023-01-29T10:11:59.894Z,77.83
2023-01-29T10:12:59.874Z,76.68
2023-01-29T10:13:59.875Z,77.10
2023-01-29T10:14:59.907Z,77.00
2023-01-29T10:15:59.867Z,77.41
2023-01-29T10:16:59.930Z,76.89
2023-01-29T10:17:59.828Z,77.10
2023-01-29T10:18:59.797Z,77.83
2023-01-29T10:19:59.815Z,78.56
2023-01-29T10:20:59.812Z,79.19
2023-01-29T10:21:59.805Z,78.56
2023-01-29T10:22:59.773Z,79.08
2023-01-29T10:23:59.757Z,77.94
2023-01-29T10:24:59.761Z,77.73
2023-01-29T10:25:59.742Z,78.25
2023-01-29T10:26:59.860Z,77.41
2023-01-29T10:27:59.730Z,76.47
2023-01-29T10:28:59.709Z,77.94
2023-01-29T10:29:59.716Z,78.35
2023-01-29T10:30:59.799Z,78.67
2023-01-29T10:31:59.870Z,78.35
2023-01-29T10:32:59.683Z,77.20
2023-01-29T10:34:02.585Z,75.43
2023-01-29T10:34:59.659Z,78.35
2023-01-29T10:35:59.672Z,76.06
2023-01-29T10:36:59.628Z,79.50
2023-01-29T10:37:59.641Z,76.47
2023-01-29T10:38:59.622Z,76.06
2023-01-29T10:39:59.620Z,77.10
2023-01-29T10:40:59.636Z,75.43
2023-01-29T10:41:59.600Z,77.10
2023-01-29T10:42:59.560Z,77.51
2023-01-29T10:43:59.615Z,77.31
2023-01-29T10:44:59.544Z,77.00
2023-01-29T10:45:59.551Z,78.25
2023-01-29T10:46:59.543Z,75.71
2023-01-29T10:47:59.529Z,75.39
2023-01-29T10:48:59.524Z,75.29
2023-01-29T10:49:59.514Z,77.17
2023-01-29T10:50:59.488Z,78.21
2023-01-29T10:51:59.491Z,77.59
2023-01-29T10:52:59.503Z,79.33
2023-01-29T10:53:59.474Z,76.92
2023-01-29T10:54:59.445Z,75.57
2023-01-29T10:55:59.432Z,76.51
2023-01-29T10:56:59.417Z,76.82
2023-01-29T10:57:59.410Z,76.92
2023-01-29T10:58:59.418Z,75.88
2023-01-29T10:59:59.407Z,77.66
2023-01-29T11:00:59.386Z,74.38
2023-01-29T11:01:59.455Z,76.26
2023-01-29T11:02:59.531Z,76.47
2023-01-29T11:03:59.383Z,77.31
2023-01-29T11:04:59.340Z,77.72
2023-01-29T11:05:59.333Z,75.53
2023-01-29T11:06:59.310Z,77.20
2023-01-29T11:07:59.304Z,76.26
2023-01-29T11:08:59.301Z,74.38
2023-01-29T11:09:59.307Z,74.60
2023-01-29T11:10:59.275Z,75.53
2023-01-29T11:11:59.273Z,74.38
2023-01-29T11:12:59.268Z,75.63
2023-01-29T11:13:59.302Z,75.74
2023-01-29T11:14:59.242Z,75.92
2023-01-29T11:15:59.238Z,76.75
2023-01-29T11:16:59.324Z,76.54
2023-01-29T11:17:59.230Z,77.06
2023-01-29T11:18:59.192Z,75.50
2023-01-29T11:19:59.220Z,74.98
2023-01-29T11:20:59.155Z,75.60
2023-01-29T11:21:59.168Z,75.40
2023-01-29T11:22:59.166Z,77.97
2023-01-29T11:23:59.156Z,76.20
2023-01-29T11:24:59.163Z,75.78
2023-01-29T11:25:59.162Z,75.15
2023-01-29T11:26:59.110Z,77.34
2023-01-29T11:27:59.108Z,77.76
2023-01-29T11:28:59.097Z,78.17
2023-01-29T11:29:59.078Z,80.16
2023-01-29T11:30:59.186Z,78.28
2023-01-29T11:31:59.128Z,77.03
2023-01-29T11:32:59.034Z,75.88
2023-01-29T11:33:59.048Z,76.30
2023-01-29T11:34:59.022Z,74.84
2023-01-29T11:35:59.056Z,77.45
2023-01-29T11:36:59.022Z,76.75
2023-01-29T11:37:59.020Z,78.63
2023-01-29T11:38:58.995Z,76.86
2023-01-29T11:39:58.982Z,75.81
2023-01-29T11:40:58.977Z,75.29
2023-01-29T11:41:58.958Z,75.78
2023-01-29T11:42:58.947Z,74.56
2023-01-29T11:43:58.954Z,74.42
2023-01-29T11:44:58.922Z,75.15
2023-01-29T11:45:58.948Z,74.32
2023-01-29T11:46:58.894Z,73.90
2023-01-29T11:47:58.922Z,73.90
2023-01-29T11:48:59.406Z,74.74
2023-01-29T11:49:58.898Z,74.21
2023-01-29T11:50:58.870Z,74.11
2023-01-29T11:51:58.856Z,74.63
2023-01-29T11:52:58.832Z,75.26
2023-01-29T11:53:58.859Z,74.63
2023-01-29T11:54:58.831Z,76.20
2023-01-29T11:55:58.883Z,74.74
2023-01-29T11:56:58.807Z,75.67
2023-01-29T11:57:58.801Z,73.80
2023-01-29T11:58:58.770Z,75.05
2023-01-29T11:59:58.807Z,74.21
2023-01-29T12:00:58.763Z,74.42
2023-01-29T12:01:58.788Z,74.42
2023-01-29T12:02:58.742Z,72.13
2023-01-29T12:03:58.804Z,72.02
2023-01-29T12:04:58.731Z,71.61
2023-01-29T12:05:58.770Z,72.75
2023-01-29T12:06:58.695Z,73.49
2023-01-29T12:07:58.711Z,71.19
2023-01-29T12:08:58.679Z,73.80
2023-01-29T12:09:58.685Z,73.17
2023-01-29T12:10:58.666Z,76.92
2023-01-29T12:11:58.666Z,72.34
2023-01-29T12:12:58.656Z,72.55
2023-01-29T12:13:58.662Z,72.55
2023-01-29T12:14:58.610Z,73.10
2023-01-29T12:15:58.631Z,72.89
2023-01-29T12:16:58.605Z,73.21
2023-01-29T12:17:58.614Z,74.15
2023-01-29T12:18:58.581Z,73.93
2023-01-29T12:19:58.585Z,72.68
2023-01-29T12:20:58.554Z,74.46
2023-01-29T12:21:58.567Z,73.62
2023-01-29T12:22:58.528Z,74.46
2023-01-29T12:23:58.541Z,73.52
2023-01-29T12:24:59.290Z,75.08
2023-01-29T12:25:58.546Z,73.31
2023-01-29T12:26:58.504Z,74.77
2023-01-29T12:27:58.489Z,74.98
2023-01-29T12:28:58.473Z,75.71
2023-01-29T12:29:58.480Z,73.52
2023-01-29T12:30:58.546Z,73.49
2023-01-29T12:31:58.461Z,73.69
2023-01-29T12:32:58.435Z,73.49
2023-01-29T12:33:58.457Z,72.65
2023-01-29T12:34:58.409Z,74.52
2023-01-29T12:35:58.431Z,75.36
2023-01-29T12:36:58.400Z,73.27
2023-01-29T12:37:58.406Z,75.78
2023-01-29T12:38:58.388Z,75.15
2023-01-29T12:39:58.380Z,72.44
2023-01-29T12:40:58.361Z,73.35
2023-01-29T12:41:58.362Z,73.35
2023-01-29T12:42:58.329Z,75.53
2023-01-29T12:43:58.384Z,73.24
2023-01-29T12:44:58.329Z,75.01
2023-01-29T12:45:58.318Z,73.45
2023-01-29T12:46:58.371Z,73.14
2023-01-29T12:47:58.313Z,73.35
2023-01-29T12:48:58.320Z,71.58
2023-01-29T12:49:58.301Z,73.45
2023-01-29T12:50:58.261Z,75.85
2023-01-29T12:51:58.258Z,76.26
2023-01-29T12:52:58.230Z,75.22
2023-01-29T12:53:58.245Z,74.49
2023-01-29T12:54:58.253Z,74.07
2023-01-29T12:55:58.252Z,73.24
2023-01-29T12:56:58.353Z,77.41
2023-01-29T12:57:58.187Z,72.72
2023-01-29T12:58:58.164Z,75.22
2023-01-29T12:59:58.163Z,71.68
2023-01-29T13:00:58.203Z,72.51
2023-01-29T13:01:58.186Z,73.03
2023-01-29T13:02:58.204Z,74.07
2023-01-29T13:03:58.120Z,72.20
2023-01-29T13:04:58.115Z,75.53
2023-01-29T13:05:58.108Z,74.18
2023-01-29T13:06:58.104Z,74.70
2023-01-29T13:07:58.108Z,74.49
2023-01-29T13:08:58.076Z,73.66
2023-01-29T13:09:58.071Z,75.01
2023-01-29T13:10:58.034Z,73.66
2023-01-29T13:11:58.075Z,74.39
2023-01-29T13:12:58.030Z,74.29
2023-01-29T13:13:58.072Z,72.20
2023-01-29T13:14:58.001Z,72.62
2023-01-29T13:15:58.052Z,73.66
2023-01-29T13:16:57.975Z,72.09
2023-01-29T13:17:58.010Z,72.72
2023-01-29T13:18:57.994Z,72.41
2023-01-29T13:19:57.970Z,75.64
2023-01-29T13:20:57.945Z,76.16
2023-01-29T13:21:57.964Z,75.12
2023-01-29T13:22:57.922Z,73.76
2023-01-29T13:23:57.925Z,74.29
2023-01-29T13:25:04.543Z,73.14
2023-01-29T13:25:57.911Z,72.83
2023-01-29T13:26:57.872Z,73.66
2023-01-29T13:27:57.931Z,71.78
2023-01-29T13:28:57.870Z,71.89
2023-01-29T13:29:57.892Z,75.53
2023-01-29T13:30:57.877Z,75.22
2023-01-29T13:31:57.940Z,73.86
2023-01-29T13:32:57.821Z,73.66
2023-01-29T13:33:57.823Z,74.18
2023-01-29T13:34:57.798Z,73.83
2023-01-29T13:35:57.839Z,73.42
2023-01-29T13:36:57.781Z,73.94
2023-01-29T13:37:57.810Z,72.06
2023-01-29T13:38:57.766Z,72.58
2023-01-29T13:39:57.757Z,71.65
2023-01-29T13:40:57.750Z,71.54
2023-01-29T13:41:57.774Z,71.75
2023-01-29T13:43:00.310Z,71.41
2023-01-29T13:43:57.834Z,72.97
2023-01-29T13:44:57.739Z,72.76
2023-01-29T13:45:57.747Z,72.03
2023-01-29T13:46:57.702Z,70.99
2023-01-29T13:47:57.720Z,70.57
2023-01-29T13:48:58.699Z,72.03
2023-01-29T13:49:57.669Z,71.92
2023-01-29T13:50:57.640Z,72.93
2023-01-29T13:51:57.918Z,71.69
2023-01-29T13:52:57.652Z,72.10
2023-01-29T13:53:57.619Z,70.23
2023-01-29T13:54:57.623Z,70.54
2023-01-29T13:55:57.589Z,70.85
2023-01-29T13:56:57.590Z,72.62
2023-01-29T13:57:57.731Z,73.14
2023-01-29T13:58:57.623Z,74.15
2023-01-29T13:59:57.812Z,71.23
2023-01-29T14:00:57.637Z,71.23
2023-01-29T14:01:57.748Z,71.44
2023-01-29T14:02:57.514Z,70.61
2023-01-29T14:04:05.769Z,72.38
2023-01-29T14:04:57.560Z,71.03
2023-01-29T14:05:57.526Z,71.10
2023-01-29T14:06:57.490Z,73.70
2023-01-29T14:07:57.757Z,70.17
2023-01-29T14:08:57.875Z,69.96
2023-01-29T14:09:57.945Z,70.48
2023-01-29T14:10:57.454Z,70.79
2023-01-29T14:11:57.568Z,72.24
2023-01-29T14:12:57.416Z,71.31
2023-01-29T14:13:58.063Z,71.31
2023-01-29T14:14:57.427Z,69.64
2023-01-29T14:15:57.517Z,70.89
2023-01-29T14:16:57.375Z,73.07
2023-01-29T14:17:57.758Z,70.27
2023-01-29T14:18:58.221Z,69.54
2023-01-29T14:19:57.425Z,74.22
2023-01-29T14:20:57.350Z,73.07
2023-01-29T14:21:57.747Z,76.19
2023-01-29T14:22:57.354Z,72.14
2023-01-29T14:23:57.683Z,71.23
2023-01-29T14:24:57.334Z,69.68
2023-01-29T14:25:57.446Z,69.68
2023-01-29T14:26:57.723Z,70.30
2023-01-29T14:27:57.692Z,69.57
2023-01-29T14:28:57.254Z,70.92
2023-01-29T14:29:57.296Z,71.55
2023-01-29T14:30:57.310Z,72.07
2023-01-29T14:31:57.207Z,71.27
2023-01-29T14:32:57.229Z,70.33
2023-01-29T14:33:57.194Z,71.89
2023-01-29T14:34:57.228Z,72.31
2023-01-29T14:35:57.201Z,71.89
2023-01-29T14:36:57.177Z,74.39
2023-01-29T14:37:57.171Z,71.89
2023-01-29T14:38:57.187Z,73.14
2023-01-29T14:39:57.214Z,71.69
2023-01-29T14:40:57.162Z,72.41
2023-01-29T14:41:57.177Z,71.89
2023-01-29T14:42:57.226Z,71.82
2023-01-29T14:43:57.138Z,71.30
2023-01-29T14:44:57.099Z,72.97
2023-01-29T14:45:57.228Z,72.76
2023-01-29T14:46:57.101Z,69.74
2023-01-29T14:47:57.123Z,72.76
2023-01-29T14:48:57.058Z,72.45
2023-01-29T14:49:57.016Z,72.66
2023-01-29T14:50:57.024Z,72.48
2023-01-29T14:51:56.997Z,71.65
2023-01-29T14:52:57.037Z,73.42
2023-01-29T14:53:56.996Z,72.38
2023-01-29T14:54:57.006Z,71.23
2023-01-29T14:55:56.947Z,71.96
2023-01-29T14:56:56.950Z,71.33
2023-01-29T14:57:56.935Z,71.54
2023-01-29T14:58:57.235Z,72.17
2023-01-29T14:59:56.913Z,73.32
2023-01-29T15:00:56.932Z,70.61
2023-01-29T15:01:56.980Z,71.96
2023-01-29T15:03:01.959Z,71.44
2023-01-29T15:03:56.943Z,71.96
2023-01-29T15:04:56.891Z,72.27
2023-01-29T15:05:56.853Z,73.38
2023-01-29T15:06:56.920Z,73.28
2023-01-29T15:07:56.861Z,73.18
2023-01-29T15:08:56.838Z,73.59
2023-01-29T15:10:07.898Z,73.49
2023-01-29T15:10:56.822Z,73.28
2023-01-29T15:11:56.811Z,72.13
2023-01-29T15:12:57.665Z,72.34
2023-01-29T15:13:56.801Z,72.45
2023-01-29T15:14:56.860Z,73.18
2023-01-29T15:15:56.814Z,71.92
2023-01-29T15:16:56.876Z,73.07
2023-01-29T15:17:56.890Z,75.15
2023-01-29T15:18:56.762Z,74.95
2023-01-29T15:19:56.753Z,73.28
2023-01-29T15:20:58.211Z,73.59
2023-01-29T15:21:56.685Z,75.57
2023-01-29T15:22:56.689Z,73.90
2023-01-29T15:23:56.669Z,73.80
2023-01-29T15:24:56.674Z,72.89
2023-01-29T15:25:56.676Z,71.54
2023-01-29T15:26:56.646Z,72.58
2023-01-29T15:27:56.629Z,72.69
2023-01-29T15:29:03.348Z,74.04
2023-01-29T15:29:56.614Z,74.35
2023-01-29T15:30:56.660Z,76.75
2023-01-29T15:31:56.703Z,76.02
2023-01-29T15:32:56.594Z,76.37
2023-01-29T15:33:56.571Z,76.06
2023-01-29T15:34:56.588Z,74.39
2023-01-29T15:36:06.749Z,73.03
2023-01-29T15:36:56.553Z,77.10
2023-01-29T15:37:56.551Z,75.32
2023-01-29T15:38:56.526Z,76.16
2023-01-29T15:39:56.510Z,74.70
2023-01-29T15:40:56.518Z,74.29
2023-01-29T15:41:56.481Z,73.97
2023-01-29T15:42:56.490Z,72.62
2023-01-29T15:43:56.486Z,73.45
2023-01-29T15:44:56.471Z,75.43
2023-01-29T15:45:56.459Z,75.22
2023-01-29T15:46:56.455Z,75.64
2023-01-29T15:47:56.414Z,74.07
2023-01-29T15:48:56.437Z,75.46
2023-01-29T15:49:56.399Z,75.98
2023-01-29T15:50:56.414Z,76.51
2023-01-29T15:51:56.384Z,75.26
2023-01-29T15:52:56.384Z,74.11
2023-01-29T15:53:56.361Z,75.15
2023-01-29T15:54:56.374Z,74.21
2023-01-29T15:55:56.335Z,74.63
2023-01-29T15:56:56.383Z,74.74
2023-01-29T15:57:56.342Z,76.40
2023-01-29T15:58:56.330Z,76.30
2023-01-29T15:59:56.303Z,76.20
2023-01-29T16:00:56.306Z,77.45
2023-01-29T16:01:56.343Z,77.66
2023-01-29T16:02:56.342Z,77.45
2023-01-29T16:03:59.066Z,77.03
2023-01-29T16:04:56.254Z,78.07
2023-01-29T16:05:56.234Z,75.26
2023-01-29T16:06:56.268Z,77.23
2023-01-29T16:07:56.230Z,76.23
2023-01-29T16:08:56.226Z,78.11
2023-01-29T16:09:56.193Z,77.58
2023-01-29T16:10:56.234Z,79.05
2023-01-29T16:11:56.180Z,78.73
2023-01-29T16:12:56.171Z,76.75
2023-01-29T16:13:56.168Z,77.48
2023-01-29T16:14:56.156Z,78.21
2023-01-29T16:15:56.244Z,78.31
2023-01-29T16:16:56.247Z,77.20
2023-01-29T16:17:56.157Z,78.04
2023-01-29T16:19:00.882Z,77.10
2023-01-29T16:19:56.123Z,76.68
2023-01-29T16:20:56.109Z,79.19
2023-01-29T16:21:56.158Z,80.44
2023-01-29T16:22:56.088Z,77.83
2023-01-29T16:23:56.187Z,78.25
2023-01-29T16:24:56.108Z,77.20
2023-01-29T16:25:56.289Z,77.00
2023-01-29T16:26:56.030Z,77.83
2023-01-29T16:27:56.175Z,78.04
2023-01-29T16:28:56.009Z,77.62
2023-01-29T16:29:56.155Z,77.31
2023-01-29T16:30:56.194Z,78.77
2023-01-29T16:31:55.993Z,76.16
2023-01-29T16:32:56.018Z,77.86
2023-01-29T16:33:55.959Z,78.49
2023-01-29T16:34:56.002Z,77.76
2023-01-29T16:35:55.945Z,78.49
2023-01-29T16:36:56.763Z,77.14
2023-01-29T16:37:55.903Z,77.55
2023-01-29T16:38:55.957Z,78.59
2023-01-29T16:39:55.897Z,77.34
2023-01-29T16:40:55.980Z,77.86
2023-01-29T16:41:55.889Z,78.07
2023-01-29T16:42:56.152Z,77.45
2023-01-29T16:43:55.849Z,79.33
2023-01-29T16:44:56.003Z,78.70
2023-01-29T16:45:55.827Z,79.33
2023-01-29T16:46:56.201Z,78.18
2023-01-29T16:47:55.870Z,78.59
2023-01-29T16:48:55.928Z,78.49
2023-01-29T16:49:55.845Z,78.39
2023-01-29T16:50:56.738Z,77.34
2023-01-29T16:51:55.839Z,79.95
2023-01-29T16:52:57.569Z,79.01
2023-01-29T16:53:55.822Z,78.28
2023-01-29T16:54:56.010Z,80.79
2023-01-29T16:55:55.906Z,79.01
2023-01-29T16:56:55.780Z,78.80
2023-01-29T16:57:55.811Z,79.95
2023-01-29T16:58:55.776Z,80.37
2023-01-29T16:59:55.732Z,79.22
2023-01-29T17:00:55.825Z,80.68
2023-01-29T17:01:55.768Z,77.66
2023-01-29T17:02:55.716Z,78.18
2023-01-29T17:03:55.807Z,78.74
2023-01-29T17:04:55.703Z,78.00
2023-01-29T17:05:55.674Z,78.21
2023-01-29T17:06:55.702Z,78.32
2023-01-29T17:07:55.704Z,78.74
2023-01-29T17:08:55.668Z,78.63
2023-01-29T17:09:55.757Z,78.84
2023-01-29T17:10:55.638Z,79.68
2023-01-29T17:11:55.721Z,77.90
2023-01-29T17:12:55.649Z,77.90
2023-01-29T17:13:55.636Z,79.26
2023-01-29T17:14:55.583Z,80.62
2023-01-29T17:15:55.611Z,79.99
2023-01-29T17:16:55.591Z,78.94
2023-01-29T17:17:55.753Z,78.94
2023-01-29T17:18:55.609Z,79.36
2023-01-29T17:19:55.717Z,79.68
2023-01-29T17:20:55.539Z,78.63
2023-01-29T17:21:55.506Z,78.42
2023-01-29T17:22:55.529Z,78.63
2023-01-29T17:23:55.517Z,81.76